createdAt,value
2022-10-18T00:01:32.920Z,102113.26
2022-10-18T00:04:06.879Z,102122.02
2022-10-18T00:06:43.362Z,102122.74
2022-10-18T00:09:20.687Z,102113.31
2022-10-18T00:11:56.374Z,102117.38
2022-10-18T00:14:37.372Z,102118.44
2022-10-18T00:17:10.622Z,102120.00
2022-10-18T00:19:54.308Z,102118.06
2022-10-18T00:22:27.990Z,102095.42
2022-10-18T00:25:01.134Z,102101.21
2022-10-18T00:27:42.987Z,102096.45
2022-10-18T00:30:18.117Z,102090.13
2022-10-18T00:32:53.439Z,102089.23
2022-10-18T00:35:27.549Z,102091.52
2022-10-18T00:38:00.994Z,102092.58
2022-10-18T00:40:35.225Z,102089.93
2022-10-18T00:43:08.650Z,102079.05
2022-10-18T00:45:41.631Z,102081.13
2022-10-18T00:48:23.269Z,102066.02
2022-10-18T00:50:57.549Z,102059.05
2022-10-18T00:53:43.337Z,102073.05
2022-10-18T00:56:16.315Z,102067.77
2022-10-18T00:58:50.486Z,102056.19
2022-10-18T01:01:25.949Z,102062.67
2022-10-18T01:04:03.795Z,102058.98
2022-10-18T01:06:51.069Z,102053.02
2022-10-18T01:09:32.620Z,102058.48
2022-10-18T01:12:17.291Z,102058.50
2022-10-18T01:15:20.854Z,102056.75
2022-10-18T01:18:09.509Z,102047.30
2022-10-18T01:21:08.470Z,102053.08
2022-10-18T01:23:43.919Z,102052.23
2022-10-18T01:26:47.811Z,102053.67
2022-10-18T01:29:30.000Z,102054.58
2022-10-18T01:32:12.170Z,102054.05
2022-10-18T01:34:55.779Z,102049.84
2022-10-18T01:37:31.984Z,102046.69
2022-10-18T01:40:09.834Z,102040.89
2022-10-18T01:42:46.361Z,102029.33
2022-10-18T01:45:21.618Z,102030.19
2022-10-18T01:47:56.629Z,102030.02
2022-10-18T01:50:43.089Z,102023.02
2022-10-18T01:53:35.670Z,102014.11
2022-10-18T01:56:28.269Z,102025.33
2022-10-18T01:59:17.895Z,102022.54
2022-10-18T02:02:07.909Z,102030.27
2022-10-18T02:05:00.487Z,102027.80
2022-10-18T02:07:37.110Z,102031.52
2022-10-18T02:10:19.753Z,102023.98
2022-10-18T02:12:55.439Z,102032.59
2022-10-18T02:15:33.352Z,102033.66
2022-10-18T02:18:16.740Z,102020.69
2022-10-18T02:20:57.016Z,102019.48
2022-10-18T02:23:36.812Z,102029.33
2022-10-18T02:26:10.245Z,102030.91
2022-10-18T02:28:44.526Z,102030.56
2022-10-18T02:31:17.871Z,102033.56
2022-10-18T02:34:32.771Z,102035.16
2022-10-18T02:37:06.691Z,102028.14
2022-10-18T02:39:53.651Z,102036.23
2022-10-18T02:42:26.324Z,102032.91
2022-10-18T02:44:58.901Z,102032.38
2022-10-18T02:47:31.553Z,102040.27
2022-10-18T02:50:04.687Z,102041.15
2022-10-18T02:52:37.638Z,102032.92
2022-10-18T02:55:11.559Z,102044.15
2022-10-18T02:57:44.971Z,102045.90
2022-10-18T03:00:19.161Z,102044.50
2022-10-18T03:02:56.752Z,102033.63
2022-10-18T03:05:30.374Z,102036.60
2022-10-18T03:08:04.019Z,102028.73
2022-10-18T03:10:38.366Z,102039.95
2022-10-18T03:13:13.382Z,102028.20
2022-10-18T03:15:46.897Z,102036.96
2022-10-18T03:18:20.356Z,102037.67
2022-10-18T03:20:53.703Z,102026.45
2022-10-18T03:23:36.206Z,102036.80
2022-10-18T03:26:09.911Z,102036.81
2022-10-18T03:28:43.132Z,102025.59
2022-10-18T03:31:15.754Z,102026.83
2022-10-18T03:33:48.129Z,102024.19
2022-10-18T03:36:21.030Z,102012.45
2022-10-18T03:38:53.963Z,102022.98
2022-10-18T03:41:26.492Z,102030.35
2022-10-18T03:43:58.977Z,102018.08
2022-10-18T03:46:31.459Z,102027.90
2022-10-18T03:49:03.809Z,102025.44
2022-10-18T03:51:36.664Z,102027.03
2022-10-18T03:54:09.250Z,102009.84
2022-10-18T03:56:41.722Z,102017.05
2022-10-18T03:59:14.208Z,102021.25
2022-10-18T04:01:50.828Z,102008.10
2022-10-18T04:04:23.645Z,102003.53
2022-10-18T04:06:56.855Z,102003.70
2022-10-18T04:09:30.402Z,102003.70
2022-10-18T04:12:04.147Z,102010.02
2022-10-18T04:14:37.840Z,102000.02
2022-10-18T04:17:11.232Z,102002.83
2022-10-18T04:19:44.446Z,101994.23
2022-10-18T04:22:17.214Z,101995.80
2022-10-18T04:24:50.307Z,101977.21
2022-10-18T04:27:23.032Z,101986.67
2022-10-18T04:29:55.222Z,101984.23
2022-10-18T04:32:29.902Z,101973.70
2022-10-18T04:35:02.812Z,101974.21
2022-10-18T04:37:36.611Z,101971.74
2022-10-18T04:40:10.488Z,101982.46
2022-10-18T04:42:44.681Z,101971.77
2022-10-18T04:45:17.938Z,101983.16
2022-10-18T04:47:50.936Z,101969.13
2022-10-18T04:50:23.902Z,101989.48
2022-10-18T04:52:57.205Z,101985.44
2022-10-18T04:55:30.071Z,101985.96
2022-10-18T04:58:02.819Z,101974.74
2022-10-18T05:00:39.951Z,101975.61
2022-10-18T05:03:15.883Z,101986.30
2022-10-18T05:06:03.761Z,101989.27
2022-10-18T05:08:39.669Z,101992.23
2022-10-18T05:11:12.535Z,101977.48
2022-10-18T05:13:48.538Z,101987.27
2022-10-18T05:16:25.580Z,101983.73
2022-10-18T05:18:58.219Z,101999.50
2022-10-18T05:21:30.913Z,102002.81
2022-10-18T05:24:03.584Z,101992.45
2022-10-18T05:26:36.750Z,102002.94
2022-10-18T05:29:10.103Z,101999.38
2022-10-18T05:31:43.063Z,101987.94
2022-10-18T05:34:16.077Z,101999.12
2022-10-18T05:36:51.243Z,101985.58
2022-10-18T05:39:24.581Z,101994.96
2022-10-18T05:41:58.631Z,102000.20
2022-10-18T05:44:32.056Z,101999.09
2022-10-18T05:47:05.261Z,101999.54
2022-10-18T05:49:38.261Z,101996.49
2022-10-18T05:52:11.003Z,101999.77
2022-10-18T05:54:44.280Z,101986.38
2022-10-18T05:57:16.969Z,101990.33
2022-10-18T05:59:49.817Z,101989.33
2022-10-18T06:02:22.532Z,101996.04
2022-10-18T06:04:55.499Z,101995.93
2022-10-18T06:07:28.472Z,101993.52
2022-10-18T06:10:01.597Z,101991.29
2022-10-18T06:12:34.665Z,101981.22
2022-10-18T06:15:08.050Z,101972.45
2022-10-18T06:17:41.053Z,101961.48
2022-10-18T06:20:13.932Z,101978.81
2022-10-18T06:22:46.714Z,101964.87
2022-10-18T06:25:19.968Z,101977.66
2022-10-18T06:27:52.959Z,101979.58
2022-10-18T06:30:26.213Z,101984.19
2022-10-18T06:33:02.837Z,101987.02
2022-10-18T06:35:36.553Z,101970.71
2022-10-18T06:38:09.887Z,101981.02
2022-10-18T06:40:43.300Z,101976.92
2022-10-18T06:43:20.971Z,101966.89
2022-10-18T06:45:56.515Z,101973.46
2022-10-18T06:48:29.372Z,101970.23
2022-10-18T06:51:04.264Z,101950.91
2022-10-18T06:53:43.907Z,101946.42
2022-10-18T06:56:19.286Z,101959.02
2022-10-18T06:58:52.277Z,101959.92
2022-10-18T07:01:25.777Z,101946.38
2022-10-18T07:03:59.335Z,101952.05
2022-10-18T07:06:32.109Z,101952.05
2022-10-18T07:09:05.359Z,101951.95
2022-10-18T07:11:38.790Z,101949.73
2022-10-18T07:14:15.433Z,101946.14
2022-10-18T07:16:51.495Z,101944.10
2022-10-18T07:19:24.793Z,101935.55
2022-10-18T07:21:57.721Z,101938.66
2022-10-18T07:24:30.831Z,101927.54
2022-10-18T07:27:03.979Z,101937.94
2022-10-18T07:29:41.424Z,101931.96
2022-10-18T07:32:14.149Z,101930.30
2022-10-18T07:34:46.775Z,101928.86
2022-10-18T07:37:19.513Z,101932.70
2022-10-18T07:39:52.108Z,101926.77
2022-10-18T07:42:25.193Z,101923.38
2022-10-18T07:44:58.002Z,101916.52
2022-10-18T07:47:32.818Z,101905.09
2022-10-18T07:50:08.716Z,101915.35
2022-10-18T07:52:41.773Z,101899.93
2022-10-18T07:55:14.631Z,101905.52
2022-10-18T07:57:47.922Z,101905.86
2022-10-18T08:00:20.776Z,101904.98
2022-10-18T08:02:59.221Z,101907.26
2022-10-18T08:08:08.017Z,101899.58
2022-10-18T08:10:41.709Z,101896.38
2022-10-18T08:13:14.738Z,101889.56
2022-10-18T08:15:47.975Z,101893.14
2022-10-18T08:18:21.253Z,101882.20
2022-10-18T08:20:53.939Z,101872.02
2022-10-18T08:23:27.286Z,101880.55
2022-10-18T08:26:03.040Z,101885.42
2022-10-18T08:28:37.055Z,101881.02
2022-10-18T08:31:12.169Z,101879.02
2022-10-18T08:33:44.961Z,101868.00
2022-10-18T08:36:19.879Z,101859.95
2022-10-18T08:38:52.700Z,101858.30
2022-10-18T08:41:34.517Z,101858.34
2022-10-18T08:44:22.568Z,101857.42
2022-10-18T08:47:16.370Z,101855.48
2022-10-18T08:50:01.324Z,101856.49
2022-10-18T08:52:48.135Z,101852.46
2022-10-18T08:55:23.366Z,101846.27
2022-10-18T08:57:59.164Z,101839.10
2022-10-18T09:00:37.916Z,101834.20
2022-10-18T09:03:16.472Z,101840.41
2022-10-18T09:06:17.652Z,101838.67
2022-10-18T09:09:08.800Z,101834.86
2022-10-18T09:11:47.513Z,101830.50
2022-10-18T09:14:40.947Z,101825.54
2022-10-18T09:17:32.047Z,101814.20
2022-10-18T09:20:27.597Z,101820.22
2022-10-18T09:23:05.556Z,101816.36
2022-10-18T09:25:49.541Z,101812.73
2022-10-18T09:28:31.979Z,101810.42
2022-10-18T09:31:13.118Z,101802.55
2022-10-18T09:34:10.598Z,101796.88
2022-10-18T09:36:45.276Z,101802.43
2022-10-18T09:39:46.251Z,101797.98
2022-10-18T09:42:33.247Z,101793.20
2022-10-18T09:45:27.518Z,101787.94
2022-10-18T09:48:23.186Z,101777.16
2022-10-18T09:51:12.685Z,101771.85
2022-10-18T09:53:47.074Z,101773.73
2022-10-18T09:56:41.074Z,101765.05
2022-10-18T09:59:38.218Z,101761.69
2022-10-18T10:02:21.689Z,101754.19
2022-10-18T10:04:58.371Z,101752.23
2022-10-18T10:07:36.854Z,101745.54
2022-10-18T10:10:27.741Z,101739.05
2022-10-18T10:13:16.694Z,101723.02
2022-10-18T10:16:04.936Z,101722.92
2022-10-18T10:18:41.409Z,101723.76
2022-10-18T10:21:18.557Z,101709.91
2022-10-18T10:24:01.577Z,101713.48
2022-10-18T10:26:39.830Z,101714.33
2022-10-18T10:29:52.005Z,101704.86
2022-10-18T10:35:00.842Z,101690.42
2022-10-18T10:37:41.610Z,101689.25
2022-10-18T10:40:28.764Z,101683.84
2022-10-18T10:43:18.324Z,101678.99
2022-10-18T10:46:01.048Z,101677.85
2022-10-18T10:49:21.725Z,101675.42
2022-10-18T10:52:26.374Z,101670.40
2022-10-18T10:55:17.033Z,101657.86
2022-10-18T10:57:58.673Z,101650.67
2022-10-18T11:00:45.685Z,101654.96
2022-10-18T11:03:29.997Z,101643.45
2022-10-18T11:06:03.957Z,101647.38
2022-10-18T11:11:33.532Z,101642.11
2022-10-18T11:14:26.908Z,101634.61
2022-10-18T11:17:29.972Z,101634.70
2022-10-18T11:20:11.787Z,101628.95
2022-10-18T11:23:01.518Z,101622.99
2022-10-18T11:25:44.378Z,101617.56
2022-10-18T11:28:35.408Z,101602.96
2022-10-18T11:31:31.166Z,101599.38
2022-10-18T11:34:31.165Z,101598.84
2022-10-18T11:37:44.814Z,101599.70
2022-10-18T11:40:40.057Z,101588.77
2022-10-18T11:43:38.992Z,101588.88
2022-10-18T11:46:22.722Z,101579.36
2022-10-18T11:49:02.456Z,101572.55
2022-10-18T11:52:09.762Z,101566.31
2022-10-18T11:55:02.196Z,101560.80
2022-10-18T11:58:09.909Z,101554.16
2022-10-18T12:00:55.309Z,101538.02
2022-10-18T12:03:45.257Z,101546.70
2022-10-18T12:06:22.495Z,101539.14
2022-10-18T12:09:17.288Z,101537.03
2022-10-18T12:11:59.220Z,101537.25
2022-10-18T12:14:56.000Z,101521.45
2022-10-18T12:17:50.309Z,101518.98
2022-10-18T12:20:50.256Z,101520.19
2022-10-18T12:23:31.764Z,101516.72
2022-10-18T12:26:09.967Z,101512.95
2022-10-18T12:29:05.556Z,101513.30
2022-10-18T12:31:50.008Z,101508.50
2022-10-18T12:34:24.896Z,101504.50
2022-10-18T12:37:46.643Z,101497.55
2022-10-18T12:40:32.733Z,101491.98
2022-10-18T12:43:14.823Z,101481.61
2022-10-18T12:46:02.863Z,101481.84
2022-10-18T12:48:46.018Z,101484.09
2022-10-18T12:51:21.584Z,101480.89
2022-10-18T12:54:14.837Z,101477.05
2022-10-18T12:56:51.318Z,101468.95
2022-10-18T12:59:26.968Z,101473.07
2022-10-18T13:01:59.646Z,101470.13
2022-10-18T13:04:32.862Z,101466.94
2022-10-18T13:07:11.616Z,101456.41
2022-10-18T13:10:04.864Z,101457.15
2022-10-18T13:13:05.645Z,101444.25
2022-10-18T13:15:56.983Z,101447.59
2022-10-18T13:18:47.450Z,101445.50
2022-10-18T13:21:41.482Z,101437.93
2022-10-18T13:24:26.957Z,101438.67
2022-10-18T13:27:36.368Z,101429.50
2022-10-18T13:30:32.669Z,101425.70
2022-10-18T13:34:02.229Z,101423.87
2022-10-18T13:36:36.698Z,101423.00
2022-10-18T13:39:21.329Z,101419.43
2022-10-18T13:41:57.579Z,101405.58
2022-10-18T13:44:45.149Z,101410.80
2022-10-18T13:47:35.718Z,101406.02
2022-10-18T13:50:17.211Z,101402.95
2022-10-18T13:53:13.831Z,101400.27
2022-10-18T13:56:07.762Z,101392.81
2022-10-18T13:59:15.804Z,101393.79
2022-10-18T14:02:07.620Z,101386.06
2022-10-18T14:05:23.195Z,101374.45
2022-10-18T14:08:10.351Z,101380.73
2022-10-18T14:11:02.222Z,101369.45
2022-10-18T14:13:50.027Z,101371.64
2022-10-18T14:16:31.143Z,101368.52
2022-10-18T14:19:31.633Z,101339.52
2022-10-18T14:22:29.904Z,101347.68
2022-10-18T14:25:03.440Z,101353.90
2022-10-18T14:27:37.311Z,101348.82
2022-10-18T14:30:16.599Z,101349.33
2022-10-18T14:32:59.799Z,101347.88
2022-10-18T14:35:41.274Z,101343.86
2022-10-18T14:38:17.154Z,101332.33
2022-10-18T14:40:50.182Z,101327.54
2022-10-18T14:43:23.237Z,101325.70
2022-10-18T14:45:55.993Z,101326.05
2022-10-18T14:48:28.949Z,101317.42
2022-10-18T14:51:03.684Z,101302.54
2022-10-18T14:53:40.434Z,101313.63
2022-10-18T14:56:28.728Z,101313.64
2022-10-18T14:59:04.281Z,101312.31
2022-10-18T15:01:36.755Z,101308.63
2022-10-18T15:04:13.893Z,101303.06
2022-10-18T15:06:47.620Z,101300.77
2022-10-18T15:09:24.882Z,101296.20
2022-10-18T15:11:58.678Z,101293.53
2022-10-18T15:14:32.210Z,101289.66
2022-10-18T15:17:29.490Z,101284.88
2022-10-18T15:20:25.971Z,101286.48
2022-10-18T15:23:25.380Z,101279.15
2022-10-18T15:26:14.626Z,101286.00
2022-10-18T15:28:54.377Z,101280.42
2022-10-18T15:31:37.849Z,101280.52
2022-10-18T15:34:20.076Z,101289.38
2022-10-18T15:36:52.004Z,101290.55
2022-10-18T15:39:32.804Z,101282.45
2022-10-18T15:42:05.916Z,101285.30
2022-10-18T15:44:52.040Z,101281.40
2022-10-18T15:47:25.654Z,101287.38
2022-10-18T15:50:00.083Z,101290.27
2022-10-18T15:52:38.457Z,101286.86
2022-10-18T15:55:34.780Z,101286.33
2022-10-18T15:58:20.760Z,101281.19
2022-10-18T16:00:54.826Z,101279.08
2022-10-18T16:03:27.700Z,101271.32
2022-10-18T16:06:09.480Z,101273.41
2022-10-18T16:08:46.934Z,101287.46
2022-10-18T16:11:24.584Z,101285.38
2022-10-18T16:13:59.616Z,101281.77
2022-10-18T16:16:33.754Z,101276.94
2022-10-18T16:19:07.024Z,101272.74
2022-10-18T16:21:41.211Z,101268.84
2022-10-18T16:24:13.909Z,101263.52
2022-10-18T16:26:47.046Z,101263.66
2022-10-18T16:29:26.234Z,101265.77
2022-10-18T16:31:58.901Z,101262.36
2022-10-18T16:34:32.526Z,101261.16
2022-10-18T16:37:05.223Z,101259.61
2022-10-18T16:39:38.261Z,101246.66
2022-10-18T16:42:11.071Z,101255.33
2022-10-18T16:44:43.645Z,101255.90
2022-10-18T16:47:16.886Z,101255.23
2022-10-18T16:49:50.474Z,101248.55
2022-10-18T16:52:23.086Z,101252.45
2022-10-18T16:54:55.323Z,101251.63
2022-10-18T16:57:27.747Z,101251.14
2022-10-18T17:00:00.638Z,101248.52
2022-10-18T17:02:33.830Z,101248.83
2022-10-18T17:05:06.601Z,101243.11
2022-10-18T17:07:39.821Z,101242.50
2022-10-18T17:10:19.979Z,101238.50
2022-10-18T17:12:53.057Z,101236.88
2022-10-18T17:15:26.026Z,101237.79
2022-10-18T17:18:00.092Z,101226.22
2022-10-18T17:20:32.599Z,101217.90
2022-10-18T17:23:05.460Z,101215.91
2022-10-18T17:25:46.507Z,101218.69
2022-10-18T17:28:32.883Z,101206.48
2022-10-18T17:31:07.448Z,101201.95
2022-10-18T17:33:40.159Z,101194.95
2022-10-18T17:36:12.943Z,101206.57
2022-10-18T17:38:47.125Z,101206.48
2022-10-18T17:41:21.387Z,101206.50
2022-10-18T17:43:55.448Z,101201.09
2022-10-18T17:46:28.342Z,101189.59
2022-10-18T17:49:01.261Z,101181.73
2022-10-18T17:51:34.985Z,101174.38
2022-10-18T17:54:08.233Z,101175.95
2022-10-18T17:56:42.492Z,101184.48
2022-10-18T17:59:15.486Z,101182.14
2022-10-18T18:01:48.462Z,101170.66
2022-10-18T18:04:20.779Z,101176.79
2022-10-18T18:06:53.763Z,101173.52
2022-10-18T18:09:27.900Z,101169.98
2022-10-18T18:12:01.042Z,101162.53
2022-10-18T18:14:34.206Z,101158.33
2022-10-18T18:17:07.741Z,101155.20
2022-10-18T18:19:40.315Z,101150.91
2022-10-18T18:22:12.973Z,101150.70
2022-10-18T18:24:45.483Z,101146.75
2022-10-18T18:27:18.026Z,101143.47
2022-10-18T18:29:51.822Z,101134.95
2022-10-18T18:32:24.448Z,101134.08
2022-10-18T18:34:57.145Z,101121.88
2022-10-18T18:37:29.891Z,101123.89
2022-10-18T18:40:02.435Z,101122.61
2022-10-18T18:42:35.590Z,101120.61
2022-10-18T18:45:09.359Z,101112.73
2022-10-18T18:47:42.145Z,101114.20
2022-10-18T18:50:15.302Z,101111.52
2022-10-18T18:52:47.746Z,101112.22
2022-10-18T18:55:20.713Z,101104.06
2022-10-18T18:57:53.415Z,101090.88
2022-10-18T19:00:27.063Z,101091.63
2022-10-18T19:02:59.837Z,101091.27
2022-10-18T19:05:32.783Z,101093.17
2022-10-18T19:08:06.563Z,101081.35
2022-10-18T19:10:39.344Z,101090.70
2022-10-18T19:13:12.589Z,101088.41
2022-10-18T19:15:45.136Z,101079.45
2022-10-18T19:18:23.105Z,101078.70
2022-10-18T19:20:58.987Z,101082.23
2022-10-18T19:23:31.758Z,101079.45
2022-10-18T19:26:15.117Z,101068.13
2022-10-18T19:28:48.076Z,101074.60
2022-10-18T19:31:21.469Z,101073.96
2022-10-18T19:33:59.689Z,101070.72
2022-10-18T19:36:34.259Z,101070.86
2022-10-18T19:39:08.440Z,101067.94
2022-10-18T19:41:41.619Z,101061.96
2022-10-18T19:44:14.460Z,101051.55
2022-10-18T19:46:48.150Z,101054.30
2022-10-18T19:49:21.087Z,101054.39
2022-10-18T19:51:54.307Z,101038.97
2022-10-18T19:54:27.993Z,101043.14
2022-10-18T19:57:00.600Z,101031.48
2022-10-18T19:59:33.678Z,101024.56
2022-10-18T20:02:07.189Z,101032.56
2022-10-18T20:04:40.309Z,101029.67
2022-10-18T20:07:13.016Z,101035.41
2022-10-18T20:09:47.657Z,101017.44
2022-10-18T20:12:20.073Z,101033.15
2022-10-18T20:14:51.353Z,101023.70
2022-10-18T20:17:23.890Z,101023.05
2022-10-18T20:19:56.458Z,101017.62
2022-10-18T20:22:29.040Z,101006.88
2022-10-18T20:25:01.786Z,101010.81
2022-10-18T20:27:34.865Z,101007.81
2022-10-18T20:30:10.526Z,100999.34
2022-10-18T20:32:43.977Z,100993.66
2022-10-18T20:35:16.490Z,100997.04
2022-10-18T20:37:49.406Z,100998.91
2022-10-18T20:40:21.794Z,100998.33
2022-10-18T20:42:54.733Z,100991.88
2022-10-18T20:45:28.042Z,100984.74
2022-10-18T20:48:00.622Z,100982.57
2022-10-18T20:50:33.568Z,100979.16
2022-10-18T20:53:06.229Z,100972.34
2022-10-18T20:55:39.400Z,100968.78
2022-10-18T20:58:12.095Z,100959.48
2022-10-18T21:00:44.487Z,100958.95
2022-10-18T21:03:17.228Z,100947.74
2022-10-18T21:05:49.896Z,100955.45
2022-10-18T21:08:22.883Z,100944.83
2022-10-18T21:10:56.060Z,100945.52
2022-10-18T21:13:28.407Z,100935.81
2022-10-18T21:16:02.400Z,100934.27
2022-10-18T21:18:36.299Z,100932.08
2022-10-18T21:21:16.263Z,100912.77
2022-10-18T21:23:49.303Z,100921.44
2022-10-18T21:26:23.756Z,100915.76
2022-10-18T21:28:58.994Z,100910.34
2022-10-18T21:31:39.422Z,100904.19
2022-10-18T21:34:16.349Z,100888.25
2022-10-18T21:36:50.299Z,100886.52
2022-10-18T21:42:03.149Z,100871.68
2022-10-18T21:44:35.745Z,100871.13
2022-10-18T21:47:08.304Z,100871.61
2022-10-18T21:49:40.962Z,100864.61
2022-10-18T21:52:13.608Z,100853.79
2022-10-18T21:54:46.219Z,100838.55
2022-10-18T21:57:18.769Z,100844.60
2022-10-18T21:59:51.315Z,100847.58
2022-10-18T22:02:23.705Z,100837.86
2022-10-18T22:04:56.343Z,100832.09
2022-10-18T22:07:28.979Z,100837.01
2022-10-18T22:10:01.911Z,100837.08
2022-10-18T22:12:34.829Z,100833.98
2022-10-18T22:15:08.025Z,100821.94
2022-10-18T22:17:40.364Z,100813.87
2022-10-18T22:20:13.655Z,100805.88
2022-10-18T22:22:46.351Z,100812.14
2022-10-18T22:25:19.122Z,100811.06
2022-10-18T22:27:51.984Z,100813.11
2022-10-18T22:30:24.389Z,100798.05
2022-10-18T22:32:57.027Z,100789.69
2022-10-18T22:35:29.694Z,100795.64
2022-10-18T22:38:02.295Z,100799.11
2022-10-18T22:40:35.322Z,100785.65
2022-10-18T22:43:08.114Z,100790.84
2022-10-18T22:45:42.037Z,100789.88
2022-10-18T22:48:14.545Z,100767.09
2022-10-18T22:50:47.345Z,100789.52
2022-10-18T22:53:19.991Z,100790.98
2022-10-18T22:55:53.315Z,100793.95
2022-10-18T22:58:26.080Z,100789.46
2022-10-18T23:01:09.344Z,100789.63
2022-10-18T23:03:42.224Z,100792.77
2022-10-18T23:06:34.881Z,100789.67
2022-10-18T23:09:09.749Z,100783.08
2022-10-18T23:11:42.346Z,100782.83
2022-10-18T23:14:14.738Z,100775.00
2022-10-18T23:16:47.164Z,100766.64
2022-10-18T23:19:19.823Z,100779.11
2022-10-18T23:21:52.108Z,100768.98
2022-10-18T23:24:24.931Z,100780.71
2022-10-18T23:26:57.396Z,100778.98
2022-10-18T23:29:30.169Z,100775.52
2022-10-18T23:32:02.702Z,100769.64
2022-10-18T23:34:35.209Z,100756.93
2022-10-18T23:37:07.888Z,100761.01
2022-10-18T23:39:40.291Z,100759.55
2022-10-18T23:42:13.068Z,100756.01
2022-10-18T23:44:45.715Z,100750.54
2022-10-18T23:47:18.824Z,100747.69
2022-10-18T23:49:51.631Z,100745.13
2022-10-18T23:52:25.158Z,100743.19
2022-10-18T23:54:57.589Z,100736.58
2022-10-18T23:57:30.317Z,100749.30
